createdAt,value
2023-02-26T00:01:49.031Z,95.60
2023-02-26T00:04:17.336Z,95.70
2023-02-26T00:06:56.847Z,95.70
2023-02-26T00:09:28.520Z,95.70
2023-02-26T00:11:57.210Z,95.70
2023-02-26T00:14:27.412Z,95.70
2023-02-26T00:17:08.442Z,95.70
2023-02-26T00:19:37.189Z,95.70
2023-02-26T00:22:06.436Z,95.90
2023-02-26T00:24:34.625Z,95.90
2023-02-26T00:27:02.830Z,95.90
2023-02-26T00:29:33.405Z,95.80
2023-02-26T00:32:02.373Z,95.70
2023-02-26T00:34:31.380Z,95.80
2023-02-26T00:37:11.208Z,95.80
2023-02-26T00:39:43.744Z,95.70
2023-02-26T00:42:13.016Z,95.80
2023-02-26T00:44:43.591Z,95.80
2023-02-26T00:47:17.830Z,96.20
2023-02-26T00:50:02.045Z,95.70
2023-02-26T00:52:36.373Z,95.70
2023-02-26T00:55:05.077Z,95.80
2023-02-26T00:57:33.311Z,95.90
2023-02-26T01:00:05.921Z,95.90
2023-02-26T01:02:35.133Z,95.90
2023-02-26T01:05:04.424Z,95.90
2023-02-26T01:07:38.975Z,95.90
2023-02-26T01:10:09.750Z,95.90
2023-02-26T01:12:38.758Z,95.90
2023-02-26T01:15:10.225Z,95.80
2023-02-26T01:17:43.778Z,95.90
2023-02-26T01:20:17.633Z,95.90
2023-02-26T01:22:50.127Z,95.90
2023-02-26T01:25:23.136Z,96.00
2023-02-26T01:27:51.888Z,96.00
2023-02-26T01:30:23.212Z,96.00
2023-02-26T01:32:56.015Z,96.00
2023-02-26T01:35:40.001Z,96.00
2023-02-26T01:38:20.624Z,96.00
2023-02-26T01:41:24.815Z,96.00
2023-02-26T01:44:01.273Z,96.10
2023-02-26T01:46:36.782Z,96.00
2023-02-26T01:49:05.362Z,96.10
2023-02-26T01:51:49.369Z,96.00
2023-02-26T01:54:20.674Z,96.20
2023-02-26T01:56:50.708Z,96.20
2023-02-26T01:59:24.358Z,96.30
2023-02-26T02:01:55.758Z,96.20
2023-02-26T02:04:23.991Z,96.40
2023-02-26T02:06:52.383Z,96.30
2023-02-26T02:09:21.312Z,96.20
2023-02-26T02:12:08.863Z,96.30
2023-02-26T02:14:48.040Z,96.40
2023-02-26T02:17:20.978Z,96.50
2023-02-26T02:20:25.698Z,96.60
2023-02-26T02:23:02.332Z,97.00
2023-02-26T02:25:52.163Z,96.50
2023-02-26T02:28:27.853Z,96.50
2023-02-26T02:31:06.760Z,96.50
2023-02-26T02:33:42.504Z,96.50
2023-02-26T02:36:14.642Z,96.50
2023-02-26T02:38:47.357Z,96.50
2023-02-26T02:41:19.291Z,96.50
2023-02-26T02:43:48.978Z,96.50
2023-02-26T02:46:21.912Z,96.40
2023-02-26T02:48:55.969Z,96.50
2023-02-26T02:51:33.793Z,96.40
2023-02-26T02:54:06.158Z,96.40
2023-02-26T02:56:36.944Z,96.40
2023-02-26T02:59:11.901Z,96.40
2023-02-26T03:01:41.375Z,96.40
2023-02-26T03:04:11.414Z,96.30
2023-02-26T03:06:39.801Z,96.30
2023-02-26T03:09:09.428Z,96.20
2023-02-26T03:11:37.764Z,96.30
2023-02-26T03:14:06.827Z,96.20
2023-02-26T03:20:11.315Z,96.30
2023-02-26T03:22:43.808Z,96.60
2023-02-26T03:25:19.759Z,96.20
2023-02-26T03:27:51.767Z,96.20
2023-02-26T03:30:23.885Z,96.20
2023-02-26T03:32:59.432Z,96.20
2023-02-26T03:35:32.893Z,96.20
2023-02-26T03:38:04.421Z,96.20
2023-02-26T03:40:35.556Z,96.30
2023-02-26T03:43:07.582Z,96.30
2023-02-26T03:45:36.645Z,96.30
2023-02-26T03:48:08.108Z,96.20
2023-02-26T03:50:38.985Z,96.20
2023-02-26T03:53:47.096Z,96.30
2023-02-26T03:56:21.112Z,96.30
2023-02-26T03:59:06.831Z,96.30
2023-02-26T04:01:51.792Z,96.30
2023-02-26T04:04:26.280Z,96.30
2023-02-26T04:06:55.157Z,96.30
2023-02-26T04:09:23.321Z,96.40
2023-02-26T04:11:52.291Z,96.40
2023-02-26T04:14:20.439Z,96.40
2023-02-26T04:16:49.457Z,96.40
2023-02-26T04:19:17.654Z,96.30
2023-02-26T04:21:47.855Z,96.30
2023-02-26T04:24:17.336Z,96.30
2023-02-26T04:26:46.404Z,96.30
2023-02-26T04:29:15.022Z,96.30
2023-02-26T04:31:43.223Z,96.30
2023-02-26T04:34:12.279Z,96.20
2023-02-26T04:36:40.722Z,96.20
2023-02-26T04:39:10.642Z,96.30
2023-02-26T04:41:39.121Z,96.20
2023-02-26T04:44:07.391Z,96.30
2023-02-26T04:46:38.076Z,96.30
2023-02-26T04:49:06.356Z,96.30
2023-02-26T04:51:34.596Z,96.40
2023-02-26T04:54:02.864Z,96.40
2023-02-26T04:56:33.544Z,96.40
2023-02-26T04:59:02.962Z,96.50
2023-02-26T05:01:32.365Z,96.50
2023-02-26T05:04:01.296Z,96.50
2023-02-26T05:06:29.575Z,96.50
2023-02-26T05:08:57.666Z,96.40
2023-02-26T05:11:25.786Z,96.50
2023-02-26T05:13:55.239Z,96.50
2023-02-26T05:16:23.638Z,96.60
2023-02-26T05:18:52.517Z,96.50
2023-02-26T05:21:21.852Z,96.50
2023-02-26T05:23:50.160Z,96.60
2023-02-26T05:26:18.667Z,96.60
2023-02-26T05:28:46.827Z,96.60
2023-02-26T05:31:16.422Z,96.60
2023-02-26T05:33:44.881Z,96.70
2023-02-26T05:36:13.783Z,96.70
2023-02-26T05:38:41.911Z,96.70
2023-02-26T05:41:10.026Z,96.60
2023-02-26T05:43:39.492Z,96.70
2023-02-26T05:46:07.595Z,96.70
2023-02-26T05:48:37.253Z,96.70
2023-02-26T05:51:05.682Z,96.70
2023-02-26T05:53:33.937Z,96.60
2023-02-26T05:56:02.093Z,97.00
2023-02-26T05:58:31.305Z,96.60
2023-02-26T06:00:59.962Z,96.70
2023-02-26T06:03:28.143Z,96.70
2023-02-26T06:05:57.677Z,96.70
2023-02-26T06:08:25.903Z,96.70
2023-02-26T06:10:54.087Z,96.70
2023-02-26T06:13:22.788Z,96.70
2023-02-26T06:15:52.209Z,96.70
2023-02-26T06:18:20.409Z,96.70
2023-02-26T06:20:48.559Z,96.70
2023-02-26T06:23:18.036Z,96.80
2023-02-26T06:25:46.297Z,96.80
2023-02-26T06:28:14.638Z,96.80
2023-02-26T06:30:42.814Z,96.80
2023-02-26T06:33:10.926Z,96.90
2023-02-26T06:35:39.220Z,96.90
2023-02-26T06:38:07.303Z,96.90
2023-02-26T06:40:36.961Z,97.00
2023-02-26T06:43:05.173Z,97.00
2023-02-26T06:45:33.357Z,97.00
2023-02-26T06:48:01.503Z,97.00
2023-02-26T06:50:29.680Z,97.10
2023-02-26T06:52:57.801Z,97.10
2023-02-26T06:55:26.893Z,97.20
2023-02-26T06:57:56.617Z,97.20
2023-02-26T07:00:25.372Z,97.30
2023-02-26T07:02:53.846Z,97.30
2023-02-26T07:05:21.964Z,97.30
2023-02-26T07:07:50.140Z,97.30
2023-02-26T07:10:21.429Z,97.40
2023-02-26T07:12:49.531Z,97.40
2023-02-26T07:15:19.203Z,97.50
2023-02-26T07:17:47.333Z,97.70
2023-02-26T07:20:15.486Z,97.60
2023-02-26T07:22:43.632Z,97.80
2023-02-26T07:25:12.198Z,98.00
2023-02-26T07:27:42.207Z,98.10
2023-02-26T07:30:13.432Z,98.10
2023-02-26T07:32:43.068Z,98.00
2023-02-26T07:35:11.382Z,97.90
2023-02-26T07:37:39.672Z,97.80
2023-02-26T07:40:09.662Z,97.80
2023-02-26T07:42:37.879Z,97.70
2023-02-26T07:45:08.047Z,97.60
2023-02-26T07:47:36.245Z,97.50
2023-02-26T07:50:07.025Z,97.50
2023-02-26T07:52:35.215Z,97.50
2023-02-26T07:55:03.366Z,97.40
2023-02-26T07:57:31.457Z,97.40
2023-02-26T07:59:59.599Z,97.40
2023-02-26T08:02:27.735Z,97.50
2023-02-26T08:04:55.864Z,98.00
2023-02-26T08:07:25.575Z,98.50
2023-02-26T08:09:53.877Z,98.70
2023-02-26T08:12:22.139Z,98.60
2023-02-26T08:14:50.583Z,98.50
2023-02-26T08:17:18.682Z,99.10
2023-02-26T08:19:46.789Z,99.20
2023-02-26T08:22:15.199Z,99.30
2023-02-26T08:24:44.745Z,98.60
2023-02-26T08:27:13.726Z,97.20
2023-02-26T08:29:42.719Z,97.10
2023-02-26T08:32:11.087Z,97.50
2023-02-26T08:34:39.309Z,97.60
2023-02-26T08:37:09.282Z,97.20
2023-02-26T08:39:38.853Z,97.50
2023-02-26T08:42:09.222Z,96.40
2023-02-26T08:44:37.437Z,95.70
2023-02-26T08:47:05.717Z,96.50
2023-02-26T08:49:33.874Z,96.50
2023-02-26T08:52:02.006Z,95.80
2023-02-26T08:54:30.207Z,95.40
2023-02-26T08:56:58.337Z,95.30
2023-02-26T08:59:27.866Z,94.70
2023-02-26T09:01:56.133Z,93.90
2023-02-26T09:04:24.406Z,94.20
2023-02-26T09:06:52.784Z,93.90
2023-02-26T09:09:21.198Z,93.60
2023-02-26T09:11:49.310Z,93.40
2023-02-26T09:14:17.715Z,93.50
2023-02-26T09:16:48.885Z,93.30
2023-02-26T09:19:18.166Z,93.00
2023-02-26T09:21:46.386Z,93.00
2023-02-26T09:24:14.798Z,92.90
2023-02-26T09:26:43.006Z,93.40
2023-02-26T09:29:11.519Z,93.10
2023-02-26T09:31:39.861Z,93.10
2023-02-26T09:34:11.413Z,93.20
2023-02-26T09:36:39.733Z,93.00
2023-02-26T09:39:08.637Z,92.80
2023-02-26T09:41:40.715Z,92.70
2023-02-26T09:44:19.534Z,92.90
2023-02-26T09:46:55.292Z,92.50
2023-02-26T09:49:50.869Z,92.90
2023-02-26T09:52:25.111Z,93.20
2023-02-26T09:54:55.081Z,92.40
2023-02-26T09:57:33.151Z,92.90
2023-02-26T10:00:01.326Z,92.20
2023-02-26T10:02:38.488Z,92.60
2023-02-26T10:05:19.397Z,91.90
2023-02-26T10:07:53.589Z,91.80
2023-02-26T10:10:30.341Z,92.10
2023-02-26T10:13:00.431Z,91.60
2023-02-26T10:15:31.275Z,91.60
2023-02-26T10:18:06.185Z,91.40
2023-02-26T10:20:44.986Z,91.10
2023-02-26T10:23:20.676Z,90.30
2023-02-26T10:25:53.395Z,90.00
2023-02-26T10:28:36.475Z,90.50
2023-02-26T10:31:08.490Z,90.10
2023-02-26T10:33:40.252Z,91.10
2023-02-26T10:36:18.301Z,90.70
2023-02-26T10:38:48.811Z,91.00
2023-02-26T10:41:19.227Z,91.20
2023-02-26T10:43:53.372Z,91.20
2023-02-26T10:46:30.961Z,90.70
2023-02-26T10:49:28.597Z,90.20
2023-02-26T10:51:58.509Z,90.50
2023-02-26T10:54:30.793Z,90.20
2023-02-26T10:56:59.071Z,90.10
2023-02-26T10:59:27.253Z,90.90
2023-02-26T11:01:55.394Z,91.30
2023-02-26T11:04:26.084Z,91.00
2023-02-26T11:06:56.276Z,91.20
2023-02-26T11:09:27.847Z,91.10
2023-02-26T11:11:58.410Z,91.10
2023-02-26T11:14:28.748Z,90.80
2023-02-26T11:16:59.783Z,88.50
2023-02-26T11:19:32.366Z,90.20
2023-02-26T11:22:01.063Z,90.10
2023-02-26T11:24:32.910Z,89.80
2023-02-26T11:27:04.383Z,90.20
2023-02-26T11:29:38.415Z,90.00
2023-02-26T11:32:07.129Z,90.00
2023-02-26T11:34:36.512Z,90.40
2023-02-26T11:37:04.709Z,89.80
2023-02-26T11:39:37.263Z,88.90
2023-02-26T11:42:05.821Z,86.00
2023-02-26T11:44:37.713Z,87.60
2023-02-26T11:47:09.237Z,85.40
2023-02-26T11:49:37.433Z,86.90
2023-02-26T11:52:24.172Z,87.70
2023-02-26T11:54:58.215Z,85.60
2023-02-26T11:57:29.034Z,85.40
2023-02-26T11:59:59.755Z,85.20
2023-02-26T12:02:32.601Z,85.80
2023-02-26T12:05:02.960Z,85.80
2023-02-26T12:07:31.353Z,85.60
2023-02-26T12:10:00.903Z,86.70
2023-02-26T12:12:45.389Z,84.90
2023-02-26T12:15:22.622Z,86.30
2023-02-26T12:18:05.513Z,84.50
2023-02-26T12:20:36.558Z,84.30
2023-02-26T12:23:22.625Z,85.70
2023-02-26T12:26:00.446Z,86.00
2023-02-26T12:28:49.014Z,84.00
2023-02-26T12:32:08.802Z,85.80
2023-02-26T12:37:36.928Z,86.00
2023-02-26T12:40:16.717Z,84.50
2023-02-26T12:42:53.022Z,85.30
2023-02-26T12:45:44.418Z,83.80
2023-02-26T12:48:42.775Z,82.70
2023-02-26T12:51:20.214Z,82.50
2023-02-26T12:53:59.234Z,82.70
2023-02-26T12:57:17.179Z,83.30
2023-02-26T13:00:23.499Z,82.80
2023-02-26T13:03:34.117Z,81.60
2023-02-26T13:06:28.836Z,82.70
2023-02-26T13:09:02.584Z,82.80
2023-02-26T13:11:44.647Z,78.50
2023-02-26T13:14:27.025Z,79.30
2023-02-26T13:17:02.306Z,78.70
2023-02-26T13:19:37.502Z,80.10
2023-02-26T13:22:09.815Z,78.80
2023-02-26T13:24:41.131Z,78.30
2023-02-26T13:27:09.790Z,76.00
2023-02-26T13:29:41.738Z,77.30
2023-02-26T13:32:13.928Z,77.60
2023-02-26T13:34:44.806Z,77.90
2023-02-26T13:37:22.873Z,78.10
2023-02-26T13:40:17.343Z,77.70
2023-02-26T13:42:49.268Z,77.10
2023-02-26T13:45:33.068Z,77.10
2023-02-26T13:48:11.546Z,76.90
2023-02-26T13:50:58.777Z,76.80
2023-02-26T13:53:52.754Z,76.20
2023-02-26T13:56:42.848Z,74.40
2023-02-26T13:59:31.489Z,75.50
2023-02-26T14:02:02.599Z,75.40
2023-02-26T14:04:32.772Z,76.10
2023-02-26T14:07:01.277Z,76.10
2023-02-26T14:09:55.299Z,76.80
2023-02-26T14:12:36.900Z,75.90
2023-02-26T14:15:40.325Z,75.40
2023-02-26T14:18:22.068Z,75.50
2023-02-26T14:20:52.290Z,76.30
2023-02-26T14:23:36.457Z,77.20
2023-02-26T14:26:18.389Z,77.70
2023-02-26T14:29:08.087Z,77.70
2023-02-26T14:31:56.370Z,77.50
2023-02-26T14:34:25.480Z,77.00
2023-02-26T14:36:56.180Z,76.90
2023-02-26T14:39:33.467Z,77.10
2023-02-26T14:42:04.684Z,76.70
2023-02-26T14:44:37.859Z,76.80
2023-02-26T14:47:06.202Z,76.80
2023-02-26T14:49:37.389Z,78.00
2023-02-26T14:52:36.198Z,78.70
2023-02-26T14:55:19.931Z,77.90
2023-02-26T14:57:54.468Z,77.10
2023-02-26T15:00:31.686Z,77.40
2023-02-26T15:03:31.098Z,77.30
2023-02-26T15:06:14.158Z,77.00
2023-02-26T15:08:56.831Z,76.00
2023-02-26T15:11:38.656Z,76.90
2023-02-26T15:14:27.812Z,77.30
2023-02-26T15:17:06.010Z,78.20
2023-02-26T15:19:45.777Z,78.50
2023-02-26T15:22:26.644Z,78.80
2023-02-26T15:24:56.133Z,76.90
2023-02-26T15:27:24.254Z,76.30
2023-02-26T15:29:53.522Z,77.60
2023-02-26T15:32:26.712Z,78.40
2023-02-26T15:35:01.249Z,77.30
2023-02-26T15:37:33.436Z,77.00
2023-02-26T15:40:05.557Z,77.00
2023-02-26T15:42:38.351Z,76.30
2023-02-26T15:45:11.012Z,76.70
2023-02-26T15:47:39.158Z,77.30
2023-02-26T15:50:08.439Z,76.60
2023-02-26T15:52:36.674Z,76.30
2023-02-26T15:55:07.946Z,75.70
2023-02-26T15:57:36.710Z,75.30
2023-02-26T16:00:10.424Z,74.90
2023-02-26T16:02:42.666Z,74.00
2023-02-26T16:05:13.188Z,74.50
2023-02-26T16:07:41.463Z,74.60
2023-02-26T16:10:18.185Z,75.00
2023-02-26T16:12:49.247Z,74.20
2023-02-26T16:15:19.936Z,73.60
2023-02-26T16:17:50.779Z,74.10
2023-02-26T16:20:20.784Z,74.30
2023-02-26T16:22:51.190Z,74.60
2023-02-26T16:25:25.430Z,74.70
2023-02-26T16:27:57.856Z,74.40
2023-02-26T16:30:30.250Z,75.10
2023-02-26T16:32:58.399Z,75.40
2023-02-26T16:35:30.699Z,75.50
2023-02-26T16:37:59.027Z,75.20
2023-02-26T16:40:29.786Z,75.70
2023-02-26T16:43:03.185Z,75.10
2023-02-26T16:45:50.806Z,74.50
2023-02-26T16:48:24.978Z,74.30
2023-02-26T16:51:00.088Z,74.20
2023-02-26T16:53:34.820Z,74.10
2023-02-26T16:56:04.887Z,73.60
2023-02-26T16:58:33.044Z,74.90
2023-02-26T17:01:09.333Z,74.00
2023-02-26T17:03:38.489Z,73.70
2023-02-26T17:06:09.214Z,74.50
2023-02-26T17:08:45.082Z,74.60
2023-02-26T17:11:22.402Z,74.80
2023-02-26T17:14:11.273Z,74.60
2023-02-26T17:16:39.492Z,75.00
2023-02-26T17:19:09.453Z,75.30
2023-02-26T17:21:38.903Z,75.10
2023-02-26T17:24:07.705Z,75.40
2023-02-26T17:26:37.160Z,75.70
2023-02-26T17:29:05.376Z,75.20
2023-02-26T17:31:33.538Z,75.40
2023-02-26T17:34:01.735Z,75.10
2023-02-26T17:36:30.643Z,75.10
2023-02-26T17:38:58.805Z,75.20
2023-02-26T17:41:28.502Z,75.40
2023-02-26T17:43:58.212Z,75.50
2023-02-26T17:46:26.509Z,75.40
2023-02-26T17:48:55.011Z,75.60
2023-02-26T17:51:23.384Z,76.00
2023-02-26T17:53:51.634Z,76.00
2023-02-26T17:56:26.871Z,75.70
2023-02-26T17:58:55.489Z,75.30
2023-02-26T18:01:26.661Z,75.20
2023-02-26T18:03:55.132Z,74.10
2023-02-26T18:06:23.584Z,74.70
2023-02-26T18:08:52.324Z,74.60
2023-02-26T18:11:23.162Z,74.50
2023-02-26T18:13:51.418Z,74.40
2023-02-26T18:16:22.391Z,74.80
2023-02-26T18:18:52.134Z,73.70
2023-02-26T18:21:20.542Z,73.40
2023-02-26T18:23:48.745Z,73.50
2023-02-26T18:26:16.956Z,73.20
2023-02-26T18:28:45.244Z,73.60
2023-02-26T18:31:13.761Z,73.90
2023-02-26T18:33:44.359Z,74.10
2023-02-26T18:36:17.517Z,74.70
2023-02-26T18:38:45.795Z,73.90
2023-02-26T18:41:13.981Z,74.10
2023-02-26T18:43:42.776Z,73.90
2023-02-26T18:46:10.940Z,73.80
2023-02-26T18:48:39.100Z,73.90
2023-02-26T18:51:07.834Z,73.90
2023-02-26T18:53:37.546Z,73.90
2023-02-26T18:56:06.443Z,73.70
2023-02-26T18:58:34.568Z,74.10
2023-02-26T19:01:04.724Z,74.20
2023-02-26T19:03:33.068Z,74.50
2023-02-26T19:06:03.104Z,74.60
2023-02-26T19:08:31.323Z,74.30
2023-02-26T19:11:00.824Z,74.30
2023-02-26T19:13:29.076Z,74.50
2023-02-26T19:15:57.495Z,74.60
2023-02-26T19:18:25.734Z,74.70
2023-02-26T19:20:53.863Z,74.60
2023-02-26T19:23:21.964Z,74.60
2023-02-26T19:25:51.585Z,74.90
2023-02-26T19:28:21.045Z,75.30
2023-02-26T19:30:49.306Z,74.90
2023-02-26T19:33:20.374Z,75.00
2023-02-26T19:35:48.556Z,74.90
2023-02-26T19:38:16.941Z,75.00
2023-02-26T19:40:45.402Z,75.50
2023-02-26T19:43:13.492Z,75.70
2023-02-26T19:45:42.931Z,75.50
2023-02-26T19:48:11.107Z,75.30
2023-02-26T19:50:39.221Z,75.50
2023-02-26T19:53:07.346Z,75.50
2023-02-26T19:55:35.447Z,75.60
2023-02-26T19:58:03.579Z,75.70
2023-02-26T20:00:31.828Z,75.80
2023-02-26T20:03:01.469Z,75.70
2023-02-26T20:05:29.823Z,75.90
2023-02-26T20:07:58.350Z,75.90
2023-02-26T20:10:26.794Z,76.00
2023-02-26T20:12:56.011Z,76.10
2023-02-26T20:15:24.133Z,76.30
2023-02-26T20:17:52.318Z,76.30
2023-02-26T20:20:22.963Z,76.50
2023-02-26T20:22:51.190Z,76.70
2023-02-26T20:25:20.337Z,76.70
2023-02-26T20:27:48.452Z,76.80
2023-02-26T20:30:16.847Z,76.80
2023-02-26T20:32:45.184Z,76.90
2023-02-26T20:35:13.522Z,76.70
2023-02-26T20:37:43.011Z,76.90
2023-02-26T20:40:12.900Z,77.00
2023-02-26T20:42:41.038Z,77.20
2023-02-26T20:45:09.768Z,77.10
2023-02-26T20:47:37.912Z,77.10
2023-02-26T20:50:07.509Z,77.10
2023-02-26T20:52:35.570Z,77.30
2023-02-26T20:55:05.903Z,77.50
2023-02-26T20:57:35.353Z,77.70
2023-02-26T21:00:10.152Z,77.60
2023-02-26T21:02:38.546Z,77.70
2023-02-26T21:05:07.868Z,77.80
2023-02-26T21:07:36.086Z,78.00
2023-02-26T21:10:06.654Z,77.80
2023-02-26T21:12:35.543Z,78.00
2023-02-26T21:15:03.811Z,78.00
2023-02-26T21:17:32.814Z,78.10
2023-02-26T21:20:00.980Z,77.90
2023-02-26T21:22:29.098Z,78.40
2023-02-26T21:24:57.202Z,78.60
2023-02-26T21:27:26.752Z,78.60
2023-02-26T21:29:54.844Z,78.70
2023-02-26T21:32:22.974Z,78.70
2023-02-26T21:34:51.117Z,78.70
2023-02-26T21:37:19.215Z,78.90
2023-02-26T21:39:48.151Z,78.90
2023-02-26T21:42:16.303Z,79.00
2023-02-26T21:44:47.050Z,78.90
2023-02-26T21:47:16.703Z,79.00
2023-02-26T21:49:44.875Z,79.10
2023-02-26T21:52:13.216Z,79.10
2023-02-26T21:54:41.411Z,79.10
2023-02-26T21:57:09.655Z,79.20
2023-02-26T21:59:37.916Z,79.50
2023-02-26T22:02:07.606Z,79.30
2023-02-26T22:04:36.574Z,79.30
2023-02-26T22:07:04.723Z,79.80
2023-02-26T22:09:32.840Z,79.40
2023-02-26T22:12:00.952Z,79.50
2023-02-26T22:14:29.268Z,79.50
2023-02-26T22:16:57.481Z,79.70
2023-02-26T22:19:27.390Z,79.70
2023-02-26T22:21:55.540Z,79.70
2023-02-26T22:24:23.807Z,80.00
2023-02-26T22:26:51.983Z,79.90
2023-02-26T22:29:20.296Z,80.00
2023-02-26T22:31:48.513Z,80.00
2023-02-26T22:34:16.975Z,80.00
2023-02-26T22:36:46.710Z,80.20
2023-02-26T22:39:14.848Z,80.20
2023-02-26T22:41:43.111Z,80.30
2023-02-26T22:44:11.844Z,80.30
2023-02-26T22:46:39.955Z,80.40
2023-02-26T22:49:08.141Z,80.40
2023-02-26T22:51:36.324Z,80.60
2023-02-26T22:54:06.277Z,80.80
2023-02-26T22:56:34.458Z,81.00
2023-02-26T22:59:02.733Z,80.70
2023-02-26T23:01:30.962Z,80.90
2023-02-26T23:03:59.611Z,80.80
2023-02-26T23:06:27.951Z,80.90
2023-02-26T23:08:56.091Z,81.10
2023-02-26T23:11:25.946Z,81.20
2023-02-26T23:13:54.232Z,81.40
2023-02-26T23:16:22.409Z,81.40
2023-02-26T23:18:50.504Z,81.40
2023-02-26T23:21:18.610Z,81.40
2023-02-26T23:23:46.732Z,81.40
2023-02-26T23:26:14.890Z,81.40
2023-02-26T23:28:44.372Z,81.50
2023-02-26T23:31:12.663Z,81.80
2023-02-26T23:33:40.895Z,81.70
2023-02-26T23:36:10.118Z,81.80
2023-02-26T23:38:38.489Z,81.80
2023-02-26T23:41:06.754Z,81.80
2023-02-26T23:43:34.946Z,81.90
2023-02-26T23:46:05.493Z,81.90
2023-02-26T23:48:33.670Z,82.10
2023-02-26T23:51:01.782Z,82.20
2023-02-26T23:53:29.959Z,82.20
2023-02-26T23:55:58.885Z,82.20
2023-02-26T23:58:27.509Z,82.20
